createdAt,value
2018-07-16T00:01:28.498Z,3.90
2018-07-16T00:03:57.873Z,4.33
2018-07-16T00:06:25.253Z,4.40
2018-07-16T00:08:52.208Z,4.23
2018-07-16T00:11:19.259Z,3.90
2018-07-16T00:13:48.462Z,3.90
2018-07-16T00:16:17.440Z,4.60
2018-07-16T00:18:44.516Z,4.23
2018-07-16T00:21:11.663Z,4.03
2018-07-16T00:23:38.964Z,4.20
2018-07-16T00:26:06.492Z,4.03
2018-07-16T00:28:33.404Z,4.53
2018-07-16T00:31:01.464Z,4.43
2018-07-16T00:33:28.411Z,4.50
2018-07-16T00:35:55.223Z,4.47
2018-07-16T00:38:22.559Z,4.07
2018-07-16T00:40:50.453Z,3.90
2018-07-16T00:43:18.193Z,4.27
2018-07-16T00:45:45.421Z,4.70
2018-07-16T00:48:12.799Z,4.37
2018-07-16T00:50:39.940Z,4.53
2018-07-16T00:53:07.483Z,4.60
2018-07-16T00:55:37.716Z,4.33
2018-07-16T00:58:05.557Z,4.63
2018-07-16T01:00:34.222Z,4.47
2018-07-16T01:03:02.532Z,4.53
2018-07-16T01:05:30.504Z,5.10
2018-07-16T01:07:58.598Z,5.17
2018-07-16T01:10:26.558Z,5.27
2018-07-16T01:12:54.385Z,4.77
2018-07-16T01:15:21.583Z,4.87
2018-07-16T01:17:48.543Z,5.10
2018-07-16T01:20:15.692Z,5.27
2018-07-16T01:22:42.918Z,4.80
2018-07-16T01:25:09.925Z,5.17
2018-07-16T01:27:37.297Z,4.90
2018-07-16T01:30:05.750Z,4.77
2018-07-16T01:32:32.738Z,5.33
2018-07-16T01:35:00.499Z,4.77
2018-07-16T01:37:27.582Z,4.87
2018-07-16T01:39:55.517Z,4.90
2018-07-16T01:42:23.421Z,5.30
2018-07-16T01:44:51.943Z,5.20
2018-07-16T01:47:19.012Z,5.30
2018-07-16T01:49:46.068Z,4.63
2018-07-16T01:52:13.122Z,4.80
2018-07-16T01:54:41.195Z,5.10
2018-07-16T01:57:08.968Z,4.80
2018-07-16T01:59:40.246Z,5.00
2018-07-16T02:02:07.889Z,5.23
2018-07-16T02:04:35.348Z,5.33
2018-07-16T02:07:02.427Z,4.73
2018-07-16T02:09:30.383Z,7.07
2018-07-16T02:11:58.050Z,5.60
2018-07-16T02:14:25.627Z,5.10
2018-07-16T02:16:52.663Z,4.77
2018-07-16T02:19:20.127Z,5.13
2018-07-16T02:21:47.690Z,4.90
2018-07-16T02:24:14.951Z,5.33
2018-07-16T02:26:42.827Z,5.37
2018-07-16T02:29:09.874Z,5.23
2018-07-16T02:31:37.751Z,5.50
2018-07-16T02:34:05.847Z,5.60
2018-07-16T02:36:34.213Z,5.37
2018-07-16T02:39:02.888Z,5.17
2018-07-16T02:41:30.182Z,5.60
2018-07-16T02:43:59.889Z,5.27
2018-07-16T02:46:28.497Z,5.57
2018-07-16T02:48:58.486Z,5.60
2018-07-16T02:51:27.016Z,5.53
2018-07-16T02:53:59.323Z,5.97
2018-07-16T02:56:27.297Z,5.57
2018-07-16T02:58:58.084Z,5.77
2018-07-16T03:01:27.112Z,5.40
2018-07-16T03:03:55.268Z,5.80
2018-07-16T03:06:24.351Z,5.37
2018-07-16T03:08:55.138Z,5.33
2018-07-16T03:11:24.118Z,5.70
2018-07-16T03:13:52.150Z,5.57
2018-07-16T03:16:20.357Z,5.67
2018-07-16T03:18:49.598Z,5.20
2018-07-16T03:21:17.521Z,5.30
2018-07-16T03:23:44.866Z,5.10
2018-07-16T03:26:14.785Z,5.13
2018-07-16T03:28:42.965Z,5.47
2018-07-16T03:31:10.834Z,5.30
2018-07-16T03:33:39.633Z,5.27
2018-07-16T04:56:39.521Z,4.75
2018-07-16T04:59:06.678Z,4.60
2018-07-16T05:01:34.116Z,4.12
2018-07-16T05:04:01.197Z,4.18
2018-07-16T05:06:28.891Z,4.18
2018-07-16T05:08:55.869Z,4.32
2018-07-16T05:11:22.898Z,4.03
2018-07-16T05:13:49.796Z,4.68
2018-07-16T05:16:17.156Z,3.72
2018-07-16T05:18:44.109Z,4.47
2018-07-16T05:21:11.571Z,4.25
2018-07-16T05:23:38.432Z,4.18
2018-07-16T05:26:05.553Z,4.20
2018-07-16T05:28:32.531Z,4.25
2018-07-16T05:30:59.726Z,4.53
2018-07-16T05:33:26.928Z,4.10
2018-07-16T05:35:54.507Z,4.10
2018-07-16T05:38:22.480Z,4.57
2018-07-16T05:40:49.636Z,4.60
2018-07-16T05:43:16.895Z,4.30
2018-07-16T05:45:44.591Z,3.85
2018-07-16T05:48:11.835Z,4.30
2018-07-16T05:50:39.195Z,4.47
2018-07-16T05:53:06.542Z,4.53
2018-07-16T05:55:34.005Z,4.10
2018-07-16T05:58:01.736Z,4.65
2018-07-16T06:00:28.828Z,4.53
2018-07-16T06:02:56.090Z,4.30
2018-07-16T06:05:23.293Z,4.20
2018-07-16T06:07:50.110Z,4.10
2018-07-16T06:10:17.024Z,4.15
2018-07-16T06:12:44.198Z,4.18
2018-07-16T06:15:11.982Z,4.45
2018-07-16T06:17:39.657Z,4.72
2018-07-16T06:20:07.371Z,4.32
2018-07-16T06:22:36.724Z,4.40
2018-07-16T06:25:04.908Z,4.55
2018-07-16T06:27:32.153Z,4.25
2018-07-16T06:29:59.513Z,4.45
2018-07-16T06:32:27.409Z,4.62
2018-07-16T06:34:56.077Z,4.62
2018-07-16T06:37:23.233Z,4.50
2018-07-16T06:39:50.121Z,4.90
2018-07-16T06:42:17.005Z,5.30
2018-07-16T06:44:44.290Z,5.28
2018-07-16T06:47:11.244Z,5.70
2018-07-16T06:49:38.295Z,5.70
2018-07-16T06:52:05.133Z,5.65
2018-07-16T06:54:32.913Z,5.57
2018-07-16T06:56:59.870Z,6.10
2018-07-16T06:59:27.946Z,5.97
2018-07-16T07:01:55.102Z,6.20
2018-07-16T07:04:22.365Z,6.20
2018-07-16T07:06:49.311Z,6.75
2018-07-16T07:09:17.385Z,5.93
2018-07-16T07:11:44.357Z,5.45
2018-07-16T07:14:11.706Z,5.43
2018-07-16T07:16:39.486Z,5.30
2018-07-16T07:19:07.137Z,5.62
2018-07-16T07:21:34.290Z,5.68
2018-07-16T07:24:01.770Z,5.95
2018-07-16T07:26:28.810Z,5.90
2018-07-16T07:28:56.178Z,5.70
2018-07-16T07:31:23.634Z,5.72
2018-07-16T07:33:51.505Z,5.53
2018-07-16T07:36:18.864Z,4.37
2018-07-16T07:38:46.462Z,4.82
2018-07-16T07:41:13.543Z,5.03
2018-07-16T07:43:40.405Z,5.15
2018-07-16T07:46:07.287Z,5.47
2018-07-16T07:48:34.340Z,4.90
2018-07-16T07:51:01.140Z,4.95
2018-07-16T07:53:28.863Z,5.43
2018-07-16T07:55:55.952Z,4.78
2018-07-16T07:58:23.676Z,5.35
2018-07-16T08:00:50.628Z,5.65
2018-07-16T08:03:18.160Z,5.62
2018-07-16T08:05:45.861Z,5.53
2018-07-16T08:08:12.827Z,5.32
2018-07-16T08:10:40.426Z,5.50
2018-07-16T08:13:08.253Z,6.28
2018-07-16T08:15:35.410Z,5.20
2018-07-16T08:18:02.390Z,5.25
2018-07-16T08:20:29.461Z,5.70
2018-07-16T08:22:57.187Z,5.00
2018-07-16T08:25:24.562Z,5.47
2018-07-16T08:27:52.010Z,5.20
2018-07-16T08:30:18.996Z,5.28
2018-07-16T08:32:45.962Z,4.65
2018-07-16T08:35:13.271Z,4.53
2018-07-16T08:37:40.533Z,4.90
2018-07-16T08:40:07.789Z,5.30
2018-07-16T08:42:34.580Z,4.82
2018-07-16T08:45:01.557Z,4.43
2018-07-16T08:47:29.970Z,4.43
2018-07-16T08:49:56.923Z,4.15
2018-07-16T08:52:23.773Z,4.15
2018-07-16T08:54:50.723Z,4.05
2018-07-16T08:57:17.680Z,4.05
2018-07-16T08:59:44.522Z,3.20
2018-07-16T09:02:11.309Z,3.12
2018-07-16T09:04:38.222Z,2.85
2018-07-16T09:07:05.196Z,2.87
2018-07-16T09:09:33.555Z,2.72
2018-07-16T09:12:00.611Z,2.50
2018-07-16T09:14:27.559Z,2.53
2018-07-16T09:16:54.433Z,2.83
2018-07-16T09:19:22.590Z,2.53
2018-07-16T09:21:49.438Z,2.90
2018-07-16T09:24:16.288Z,2.58
2018-07-16T09:26:43.135Z,2.30
2018-07-16T09:29:10.088Z,2.05
2018-07-16T09:31:37.040Z,2.42
2018-07-16T09:34:03.890Z,2.62
2018-07-16T09:36:30.633Z,2.67
2018-07-16T09:38:57.514Z,2.58
2018-07-16T09:41:24.845Z,2.55
2018-07-16T09:43:51.795Z,2.40
2018-07-16T09:46:19.055Z,2.95
2018-07-16T09:48:46.006Z,2.70
2018-07-16T09:51:12.854Z,2.80
2018-07-16T09:53:40.111Z,2.90
2018-07-16T09:56:06.984Z,2.60
2018-07-16T09:58:34.529Z,3.42
2018-07-16T10:01:01.894Z,2.58
2018-07-16T10:03:28.844Z,2.87
2018-07-16T10:05:56.609Z,2.80
2018-07-16T10:08:23.463Z,2.60
2018-07-16T10:10:50.411Z,2.58
2018-07-16T10:13:17.260Z,2.92
2018-07-16T10:15:44.518Z,2.67
2018-07-16T10:18:11.506Z,2.85
2018-07-16T10:20:39.588Z,3.00
2018-07-16T10:23:06.805Z,2.53
2018-07-16T10:25:33.652Z,2.85
2018-07-16T10:28:00.608Z,2.80
2018-07-16T10:30:27.556Z,3.12
2018-07-16T10:32:54.404Z,3.30
2018-07-16T10:35:21.255Z,3.03
2018-07-16T10:37:48.306Z,3.03
2018-07-16T10:40:15.772Z,2.83
2018-07-16T10:42:42.516Z,2.80
2018-07-16T10:45:09.366Z,3.00
2018-07-16T10:47:36.318Z,3.42
2018-07-16T10:50:03.168Z,2.92
2018-07-16T10:52:30.116Z,2.67
2018-07-16T10:54:56.863Z,2.60
2018-07-16T10:57:23.712Z,2.65
2018-07-16T10:59:50.499Z,2.72
2018-07-16T11:02:17.308Z,2.90
2018-07-16T11:04:44.260Z,2.95
2018-07-16T11:07:11.932Z,2.85
2018-07-16T11:09:38.782Z,2.78
2018-07-16T11:12:05.934Z,2.75
2018-07-16T11:14:32.779Z,2.50
2018-07-16T11:16:59.733Z,2.60
2018-07-16T11:19:26.686Z,2.62
2018-07-16T11:21:53.535Z,2.60
2018-07-16T11:24:20.484Z,2.70
2018-07-16T11:26:47.339Z,2.75
2018-07-16T11:29:14.286Z,2.80
2018-07-16T11:31:41.237Z,5.75
2018-07-16T11:34:08.085Z,2.70
2018-07-16T11:36:34.937Z,2.45
2018-07-16T11:39:02.192Z,2.75
2018-07-16T11:41:29.040Z,3.15
2018-07-16T11:43:55.891Z,2.83
2018-07-16T11:46:23.356Z,3.00
2018-07-16T11:48:50.514Z,2.62
2018-07-16T11:51:18.175Z,2.60
2018-07-16T11:53:45.026Z,2.80
2018-07-16T11:56:12.692Z,2.83
2018-07-16T11:58:41.589Z,2.85
2018-07-16T12:01:09.381Z,3.55
2018-07-16T12:03:37.085Z,2.78
2018-07-16T12:06:04.081Z,2.90
2018-07-16T12:08:32.054Z,2.58
2018-07-16T12:10:59.416Z,2.92
2018-07-16T12:13:27.517Z,2.92
2018-07-16T12:15:55.784Z,2.75
2018-07-16T12:18:22.724Z,2.80
2018-07-16T12:20:50.085Z,3.00
2018-07-16T12:23:17.041Z,3.15
2018-07-16T12:25:43.886Z,3.08
2018-07-16T12:28:11.759Z,3.22
2018-07-16T12:30:38.815Z,2.85
2018-07-16T12:33:05.867Z,3.20
2018-07-16T12:35:32.823Z,3.10
2018-07-16T12:38:00.178Z,2.90
2018-07-16T12:40:27.569Z,3.20
2018-07-16T12:42:54.391Z,2.62
2018-07-16T12:45:21.855Z,3.08
2018-07-16T12:47:49.928Z,3.12
2018-07-16T12:50:17.845Z,3.00
2018-07-16T12:52:46.651Z,2.90
2018-07-16T12:55:15.801Z,3.00
2018-07-16T12:57:45.979Z,3.08
2018-07-16T13:00:13.282Z,2.70
2018-07-16T13:02:40.846Z,3.10
2018-07-16T13:05:08.208Z,2.85
2018-07-16T13:07:36.389Z,2.90
2018-07-16T13:10:03.235Z,2.90
2018-07-16T13:12:30.189Z,2.80
2018-07-16T13:14:57.084Z,2.90
2018-07-16T13:17:24.522Z,3.12
2018-07-16T13:19:51.495Z,3.00
2018-07-16T13:22:19.390Z,2.90
2018-07-16T13:24:46.683Z,3.00
2018-07-16T13:27:13.472Z,2.90
2018-07-16T13:29:41.814Z,3.22
2018-07-16T13:32:08.668Z,2.72
2018-07-16T13:34:35.615Z,2.80
2018-07-16T13:37:02.525Z,3.00
2018-07-16T13:39:30.796Z,4.32
2018-07-16T13:41:58.204Z,3.17
2018-07-16T13:44:25.953Z,2.80
2018-07-16T13:46:53.852Z,2.85
2018-07-16T13:49:21.616Z,3.28
2018-07-16T13:51:48.623Z,3.00
2018-07-16T13:54:16.748Z,2.72
2018-07-16T13:56:44.521Z,2.72
2018-07-16T13:59:11.354Z,3.25
2018-07-16T14:01:38.941Z,2.95
2018-07-16T14:04:05.887Z,2.87
2018-07-16T14:06:32.736Z,2.80
2018-07-16T14:08:59.576Z,2.80
2018-07-16T14:11:26.433Z,3.10
2018-07-16T14:13:53.612Z,2.90
2018-07-16T14:16:21.877Z,2.58
2018-07-16T14:18:49.228Z,2.83
2018-07-16T14:21:16.182Z,2.70
2018-07-16T14:23:42.914Z,3.05
2018-07-16T14:26:09.778Z,3.03
2018-07-16T14:28:36.824Z,2.90
2018-07-16T14:31:03.716Z,2.70
2018-07-16T14:33:30.630Z,2.85
2018-07-16T14:35:57.589Z,2.97
2018-07-16T14:38:24.651Z,2.92
2018-07-16T14:40:51.998Z,2.90
2018-07-16T14:43:18.846Z,3.10
2018-07-16T14:45:45.902Z,3.33
2018-07-16T14:48:12.849Z,3.20
2018-07-16T14:50:39.711Z,2.95
2018-07-16T14:53:06.548Z,2.92
2018-07-16T14:55:33.301Z,2.95
2018-07-16T14:58:00.146Z,3.20
2018-07-16T15:00:27.094Z,3.00
2018-07-16T15:02:54.046Z,3.20
2018-07-16T15:05:20.899Z,2.92
2018-07-16T15:07:47.845Z,3.15
2018-07-16T15:10:14.697Z,2.87
2018-07-16T15:12:41.550Z,3.17
2018-07-16T15:15:08.496Z,2.80
2018-07-16T15:17:35.754Z,3.03
2018-07-16T15:20:03.036Z,2.67
2018-07-16T15:22:30.577Z,4.72
2018-07-16T15:24:57.796Z,2.95
2018-07-16T15:27:25.097Z,2.97
2018-07-16T15:29:51.944Z,2.90
2018-07-16T15:32:19.816Z,2.50
2018-07-16T15:34:47.078Z,2.90
2018-07-16T15:37:13.922Z,3.20
2018-07-16T15:39:40.984Z,2.45
2018-07-16T15:42:08.645Z,2.50
2018-07-16T15:44:35.494Z,2.87
2018-07-16T15:47:02.238Z,2.75
2018-07-16T15:49:29.090Z,2.78
2018-07-16T15:51:56.958Z,2.87
2018-07-16T15:54:25.955Z,2.90
2018-07-16T15:56:52.909Z,3.12
2018-07-16T15:59:20.271Z,2.85
2018-07-16T16:01:47.015Z,2.70
2018-07-16T16:04:13.968Z,2.80
2018-07-16T16:06:40.921Z,2.70
2018-07-16T16:09:08.176Z,2.40
2018-07-16T16:11:35.127Z,3.08
2018-07-16T16:14:02.080Z,2.53
2018-07-16T16:16:29.002Z,2.87
2018-07-16T16:18:56.700Z,2.65
2018-07-16T16:21:24.365Z,2.70
2018-07-16T16:23:51.152Z,2.65
2018-07-16T16:26:18.012Z,2.80
2018-07-16T16:28:45.015Z,2.65
2018-07-16T16:31:11.967Z,2.50
2018-07-16T16:33:38.917Z,2.62
2018-07-16T16:36:05.868Z,2.72
2018-07-16T16:38:32.821Z,2.90
2018-07-16T16:40:59.772Z,2.60
2018-07-16T16:43:26.621Z,2.60
2018-07-16T16:45:53.472Z,2.72
2018-07-16T16:48:20.318Z,2.55
2018-07-16T16:50:47.271Z,2.50
2018-07-16T16:53:14.219Z,2.70
2018-07-16T16:55:41.070Z,2.72
2018-07-16T16:58:08.023Z,2.80
2018-07-16T17:00:34.975Z,2.80
2018-07-16T17:03:01.749Z,2.90
2018-07-16T17:05:28.573Z,2.80
2018-07-16T17:07:55.522Z,2.90
2018-07-16T17:10:22.258Z,2.90
2018-07-16T17:12:49.218Z,2.95
2018-07-16T17:15:16.173Z,3.30
2018-07-16T17:17:43.020Z,2.90
2018-07-16T17:20:09.765Z,3.40
2018-07-16T17:22:37.537Z,3.28
2018-07-16T17:25:04.486Z,3.33
2018-07-16T17:27:31.439Z,3.40
2018-07-16T17:29:58.289Z,3.30
2018-07-16T17:32:25.236Z,3.42
2018-07-16T17:34:52.191Z,3.30
2018-07-16T17:37:19.140Z,3.58
2018-07-16T17:39:45.992Z,3.50
2018-07-16T17:42:13.964Z,3.50
2018-07-16T17:44:41.834Z,3.28
2018-07-16T17:47:09.103Z,3.50
2018-07-16T17:49:36.524Z,3.47
2018-07-16T17:52:03.409Z,3.60
2018-07-16T17:54:30.666Z,3.62
2018-07-16T17:56:58.796Z,3.78
2018-07-16T17:59:26.010Z,3.50
2018-07-16T18:01:53.257Z,3.40
2018-07-16T18:04:21.026Z,3.50
2018-07-16T18:06:47.981Z,3.12
2018-07-16T18:09:14.830Z,3.50
2018-07-16T18:11:42.188Z,3.00
2018-07-16T18:14:09.007Z,3.17
2018-07-16T18:16:35.987Z,2.90
2018-07-16T18:19:02.840Z,2.90
2018-07-16T18:21:29.791Z,2.87
2018-07-16T18:23:57.763Z,2.95
2018-07-16T18:26:24.920Z,3.28
2018-07-16T18:28:52.180Z,3.37
2018-07-16T18:31:19.125Z,3.20
2018-07-16T18:33:45.884Z,3.25
2018-07-16T18:36:15.211Z,3.10
2018-07-16T18:38:42.182Z,3.00
2018-07-16T18:41:08.897Z,3.00
2018-07-16T18:43:35.997Z,3.15
2018-07-16T18:46:05.750Z,3.03
2018-07-16T18:48:32.803Z,2.85
2018-07-16T18:51:00.672Z,3.37
2018-07-16T18:53:28.792Z,3.10
2018-07-16T18:55:56.524Z,3.22
2018-07-16T18:58:24.392Z,3.33
2018-07-16T19:00:51.346Z,3.10
2018-07-16T19:03:18.091Z,3.12
2018-07-16T19:05:46.491Z,2.90
2018-07-16T19:08:14.247Z,3.15
2018-07-16T19:10:41.915Z,2.97
2018-07-16T19:13:08.967Z,2.78
2018-07-16T19:15:37.165Z,3.17
2018-07-16T19:18:04.613Z,3.30
2018-07-16T19:20:32.950Z,3.10
2018-07-16T19:23:01.582Z,3.30
2018-07-16T19:25:29.865Z,3.53
2018-07-16T19:27:58.644Z,2.80
2018-07-16T19:30:25.927Z,3.35
2018-07-16T19:32:53.892Z,3.15
2018-07-16T19:35:21.278Z,3.10
2018-07-16T19:37:48.579Z,4.37
2018-07-16T19:40:16.575Z,3.22
2018-07-16T19:42:43.657Z,3.40
2018-07-16T19:45:17.812Z,3.10
2018-07-16T19:47:45.119Z,7.28
2018-07-16T19:50:11.963Z,3.50
2018-07-16T19:52:38.917Z,3.58
2018-07-16T19:55:05.947Z,3.30
2018-07-16T19:57:32.719Z,3.55
2018-07-16T19:59:59.574Z,3.25
2018-07-16T20:02:27.750Z,3.40
2018-07-16T20:04:54.593Z,3.67
2018-07-16T20:07:21.892Z,3.37
2018-07-16T20:09:48.827Z,3.58
2018-07-16T20:12:18.019Z,3.17
2018-07-16T20:14:45.776Z,3.45
2018-07-16T20:17:13.852Z,3.75
2018-07-16T20:19:41.621Z,3.60
2018-07-16T20:22:08.403Z,3.70
2018-07-16T20:24:35.321Z,3.40
2018-07-16T20:27:02.316Z,3.58
2018-07-16T20:29:29.221Z,3.80
2018-07-16T20:31:56.892Z,3.70
2018-07-16T20:34:24.047Z,3.70
2018-07-16T20:36:51.203Z,3.47
2018-07-16T20:39:18.113Z,4.10
2018-07-16T20:41:45.006Z,4.00
2018-07-16T20:44:12.158Z,3.90
2018-07-16T20:46:39.012Z,3.63
2018-07-16T20:49:06.452Z,4.10
2018-07-16T20:51:33.320Z,4.00
2018-07-16T20:54:01.728Z,3.93
2018-07-16T20:56:29.576Z,4.20
2018-07-16T20:58:56.323Z,3.87
2018-07-16T21:01:23.277Z,3.87
2018-07-16T21:03:50.534Z,3.73
2018-07-16T21:06:17.587Z,4.40
2018-07-16T21:08:44.539Z,3.80
2018-07-16T21:14:03.614Z,3.77
2018-07-16T21:16:31.101Z,3.53
2018-07-16T21:18:58.537Z,4.30
2018-07-16T21:21:26.311Z,4.03
2018-07-16T21:23:57.763Z,4.17
2018-07-16T21:26:24.614Z,4.70
2018-07-16T21:28:51.666Z,4.43
2018-07-16T21:31:18.722Z,4.27
2018-07-16T21:33:45.776Z,4.60
2018-07-16T21:36:12.728Z,4.60
2018-07-16T21:38:39.574Z,4.20
2018-07-16T21:41:06.637Z,4.10
2018-07-16T21:43:33.783Z,4.30
2018-07-16T21:46:00.737Z,4.60
2018-07-16T21:48:27.483Z,4.63
2018-07-16T21:50:55.256Z,4.43
2018-07-16T21:53:22.516Z,4.00
2018-07-16T21:55:49.389Z,4.30
2018-07-16T21:58:16.229Z,4.50
2018-07-16T22:00:43.494Z,4.37
2018-07-16T22:03:10.884Z,4.27
2018-07-16T22:05:37.783Z,4.10
2018-07-16T22:08:04.730Z,4.10
2018-07-16T22:10:31.578Z,4.10
2018-07-16T22:12:58.839Z,4.77
2018-07-16T22:15:26.025Z,4.40
2018-07-16T22:17:52.813Z,4.37
2018-07-16T22:20:20.613Z,4.33
2018-07-16T22:22:48.279Z,4.80
2018-07-16T22:25:15.224Z,4.10
2018-07-16T22:27:43.617Z,4.17
2018-07-16T22:30:11.283Z,4.60
2018-07-16T22:32:38.048Z,3.90
2018-07-16T22:35:04.888Z,4.23
2018-07-16T22:37:31.833Z,4.20
2018-07-16T22:39:58.683Z,4.57
2018-07-16T22:42:25.636Z,4.43
2018-07-16T22:44:52.414Z,4.80
2018-07-16T22:47:19.329Z,4.50
2018-07-16T22:49:46.179Z,4.70
2018-07-16T22:52:13.235Z,4.40
2018-07-16T22:54:40.083Z,4.53
2018-07-16T22:57:07.406Z,4.60
2018-07-16T22:59:35.078Z,4.70
2018-07-16T23:02:02.674Z,4.77
2018-07-16T23:04:30.342Z,4.60
2018-07-16T23:06:57.296Z,4.77
2018-07-16T23:09:24.144Z,4.70
2018-07-16T23:11:50.993Z,4.67
2018-07-16T23:14:17.845Z,4.70
2018-07-16T23:16:44.679Z,5.03
2018-07-16T23:19:11.557Z,4.47
2018-07-16T23:21:38.390Z,4.37
2018-07-16T23:24:05.338Z,4.93
2018-07-16T23:26:32.190Z,4.67
2018-07-16T23:28:59.071Z,4.30
2018-07-16T23:31:25.879Z,4.30
2018-07-16T23:33:52.739Z,4.57
2018-07-16T23:36:20.096Z,4.60
2018-07-16T23:38:47.048Z,4.53
2018-07-16T23:41:13.999Z,4.93
2018-07-16T23:43:40.847Z,4.30
2018-07-16T23:46:07.800Z,4.50
2018-07-16T23:48:34.649Z,4.43
2018-07-16T23:51:01.601Z,4.80
2018-07-16T23:53:28.860Z,4.40
2018-07-16T23:55:55.825Z,4.87
2018-07-16T23:58:23.373Z,5.30
